Flatwoods, West Virginia
Current Conditions -  °F | °C
As of 4:35 AM on Thursday 18 Dec 2014 (Local Time) from KW22 Reporting Station
Overcast Overcast  
Wind Chill: 21°   Ceiling: 1900
Heat Index: 27°   Visibility: 10mi
Dew Point: 19°   Wind: 5mph
Humidity: 74%   Direction: 310°NW
Pressure: 30.17"   Gusts: 13mph
Location:  38.72°N, 80.65°W
Report Text: KW22 180935Z AUTO 31004G11KT 10SM OVC019 M03/M07 A3017 RMK AO2
Loading
Personal Weather Stations






























Interactive Weather Map New forecast layout! Learn more

10-Day Weather Forecast

Advertisements
Track Severe Weather on mobile